Time;durP1;ratioP1;P1;durP2;ratioP2;P2;SDS_P1;SDS_P2;PMS_P1;PMS_P2;Temp;Humidity;BMP_temperature;BMP_pressure;BME280_temperature;BME280_humidity;BME280_pressure;Samples;Min_cycle;Max_cycle;Signal;HPM_P1;HPM_P2
2021/09/20 00:00:41;;;;;;;8.18;3.10;;;;;;;19.03;59.52;98795.47;5052633;28;20049;-50
2021/09/20 00:03:06;;;;;;;7.53;4.03;;;;;;;18.93;60.62;98798.84;5051190;28;20107;-50
2021/09/20 00:05:32;;;;;;;9.43;2.20;;;;;;;19.10;60.05;98804.88;5052511;28;20118;-49
2021/09/20 00:07:58;;;;;;;9.75;2.78;;;;;;;19.41;61.00;98793.66;5052512;28;20075;-50
2021/09/20 00:10:24;;;;;;;177.80;162.25;;;;;;;19.49;62.42;98790.53;5034552;28;20376;-50
2021/09/20 00:12:49;;;;;;;23.95;21.63;;;;;;;19.14;63.29;98786.53;5052408;28;20029;-50
2021/09/20 00:15:16;;;;;;;9.88;5.15;;;;;;;18.52;64.59;98798.41;5052366;28;20024;-49
2021/09/20 00:17:42;;;;;;;8.57;2.40;;;;;;;18.06;66.43;98796.00;5052344;28;20021;-49
2021/09/20 00:20:10;;;;;;;14.52;7.93;;;;;;;17.84;68.15;98795.19;5051934;28;20103;-49
2021/09/20 00:22:37;;;;;;;10.02;3.10;;;;;;;17.71;68.61;98789.16;5052148;28;20020;-49
2021/09/20 00:25:05;;;;;;;10.05;4.38;;;;;;;17.47;68.99;98793.84;5052151;28;20017;-49
2021/09/20 00:27:31;;;;;;;5.90;2.00;;;;;;;17.21;69.62;98795.31;5050606;28;20032;-49
2021/09/20 00:29:57;;;;;;;5.75;1.52;;;;;;;17.04;70.03;98789.97;5050810;28;20020;-49
2021/09/20 00:32:23;;;;;;;3.90;1.48;;;;;;;17.03;71.17;98796.34;5050915;28;20025;-49
2021/09/20 00:34:49;;;;;;;8.02;3.25;;;;;;;17.21;71.56;98795.31;5052007;28;20029;-48
2021/09/20 00:37:15;;;;;;;120.13;110.00;;;;;;;17.31;71.42;98799.97;5051972;28;20029;-50
2021/09/20 00:39:41;;;;;;;28.17;25.13;;;;;;;17.41;71.89;98802.78;5050690;28;20017;-49
2021/09/20 00:42:07;;;;;;;7.30;2.45;;;;;;;17.56;71.36;98796.88;5051746;28;20025;-49
2021/09/20 00:44:33;;;;;;;8.38;2.78;;;;;;;17.55;70.75;98796.09;5050581;28;20032;-49
2021/09/20 00:46:59;;;;;;;20.35;11.15;;;;;;;17.42;71.92;98795.63;5051852;28;20063;-49
2021/09/20 00:49:25;;;;;;;12.57;3.90;;;;;;;17.26;73.00;98790.06;5051857;28;20057;-50
2021/09/20 00:51:51;;;;;;;29.50;19.20;;;;;;;16.93;74.22;98799.59;5050452;28;20466;-50
2021/09/20 00:54:17;;;;;;;16.30;6.75;;;;;;;16.82;75.41;98803.16;5051799;28;20031;-49
2021/09/20 00:56:43;;;;;;;12.88;5.88;;;;;;;16.79;75.92;98800.91;5051788;28;20028;-50
2021/09/20 00:59:09;;;;;;;49.67;45.50;;;;;;;16.75;76.54;98803.25;5051730;28;20033;-50
2021/09/20 01:01:36;;;;;;;14.75;4.50;;;;;;;16.70;76.97;98803.16;5051744;28;20044;-50
2021/09/20 01:04:02;;;;;;;7.05;2.97;;;;;;;16.74;77.25;98793.69;5050337;28;20025;-50
2021/09/20 01:06:28;;;;;;;10.63;5.20;;;;;;;16.77;77.34;98795.06;5051628;28;20017;-50
2021/09/20 01:08:54;;;;;;;7.72;5.07;;;;;;;16.70;77.09;98791.72;5051608;28;20116;-50
2021/09/20 01:11:21;;;;;;;7.85;3.33;;;;;;;16.52;77.20;98787.44;5051646;28;20104;-49
2021/09/20 01:13:47;;;;;;;16.02;13.60;;;;;;;16.39;77.57;98793.81;5051550;28;20025;-49
2021/09/20 01:16:12;;;;;;;6.35;2.70;;;;;;;16.02;77.49;98780.09;5051577;28;20100;-49
2021/09/20 01:18:38;;;;;;;10.32;5.13;;;;;;;15.76;78.48;98788.31;5051586;28;20518;-51
2021/09/20 01:21:03;;;;;;;11.85;5.57;;;;;;;15.67;79.37;98788.84;5051324;28;20045;-52
2021/09/20 01:23:29;;;;;;;7.18;3.30;;;;;;;15.74;79.96;98793.03;5050085;28;20029;-51
2021/09/20 01:25:55;;;;;;;4.93;1.38;;;;;;;15.81;79.45;98786.81;5051526;28;20118;-50
2021/09/20 01:28:21;;;;;;;4.00;1.42;;;;;;;15.67;79.13;98787.00;5050196;28;20550;-49
2021/09/20 01:30:46;;;;;;;4.35;2.22;;;;;;;15.19;79.33;98790.66;5051445;28;20119;-50
2021/09/20 01:33:12;;;;;;;5.32;2.00;;;;;;;14.81;80.55;98786.56;5050168;28;20527;-49
2021/09/20 01:35:38;;;;;;;6.35;2.13;;;;;;;14.58;81.61;98779.34;5050077;28;20060;-49
2021/09/20 01:38:04;;;;;;;4.65;2.30;;;;;;;14.42;82.10;98780.75;5050094;28;20071;-49
2021/09/20 01:40:30;;;;;;;14.48;3.70;;;;;;;14.31;82.62;98786.78;5053770;28;20029;-49
2021/09/20 01:42:56;;;;;;;6.93;2.80;;;;;;;14.38;82.80;98784.84;5055243;28;20518;-49
2021/09/20 01:45:25;;;;;;;4.15;2.78;;;;;;;14.30;82.93;98783.31;5055275;28;20028;-50
2021/09/20 01:47:51;;;;;;;9.70;6.30;;;;;;;14.18;83.60;98780.63;5055243;28;20043;-49
2021/09/20 01:50:17;;;;;;;5.13;2.15;;;;;;;14.12;83.66;98781.50;5055121;28;20033;-49
2021/09/20 01:52:42;;;;;;;6.15;2.72;;;;;;;14.08;83.93;98776.88;5055115;28;20084;-50
2021/09/20 01:55:10;;;;;;;10.98;2.95;;;;;;;14.16;84.44;98780.03;5055133;28;20075;-50
2021/09/20 01:57:35;;;;;;;3.47;1.60;;;;;;;14.24;84.27;98778.94;5053731;28;20079;-51
2021/09/20 02:00:03;;;;;;;6.68;2.10;;;;;;;14.14;84.53;98771.53;5054937;28;20021;-52
2021/09/20 02:02:28;;;;;;;6.07;3.63;;;;;;;14.26;84.05;98768.16;5055115;28;20108;-52
2021/09/20 02:04:54;;;;;;;5.53;2.88;;;;;;;14.21;83.13;98765.38;5054868;28;20563;-51
2021/09/20 02:07:20;;;;;;;10.15;2.58;;;;;;;14.27;83.93;98773.22;5054772;28;20021;-52
2021/09/20 02:09:45;;;;;;;11.77;1.75;;;;;;;14.35;83.99;98764.19;5053438;28;20065;-52
2021/09/20 02:12:11;;;;;;;10.40;4.97;;;;;;;14.39;83.82;98760.06;5053404;28;20112;-52
2021/09/20 02:14:37;;;;;;;5.78;1.88;;;;;;;14.56;84.38;98762.91;5054667;28;20096;-52
2021/09/20 02:17:03;;;;;;;48.15;43.47;;;;;;;14.70;84.21;98758.25;5054619;28;20033;-52
2021/09/20 02:19:29;;;;;;;8.10;1.80;;;;;;;14.86;84.28;98760.25;5054392;28;20108;-52
2021/09/20 02:21:55;;;;;;;13.63;12.32;;;;;;;14.61;83.17;98762.25;5054494;28;20035;-52
2021/09/20 02:24:20;;;;;;;7.57;3.22;;;;;;;14.29;83.42;98763.25;5053136;28;20514;-51
2021/09/20 02:26:46;;;;;;;5.43;1.10;;;;;;;14.05;83.62;98759.66;5054421;28;20031;-51
2021/09/20 02:29:11;;;;;;;9.88;2.17;;;;;;;13.93;84.20;98759.59;5054412;28;20025;-51
2021/09/20 02:31:37;;;;;;;10.10;3.13;;;;;;;13.88;84.35;98762.06;5054380;28;20025;-52
2021/09/20 02:34:03;;;;;;;6.38;1.98;;;;;;;13.82;84.65;98765.59;5054337;28;20398;-52
2021/09/20 02:36:29;;;;;;;6.55;2.63;;;;;;;13.80;85.04;98757.09;5052932;28;20032;-52
2021/09/20 02:38:57;;;;;;;4.88;1.20;;;;;;;13.75;85.47;98747.22;5054210;28;20021;-52
2021/09/20 02:41:23;;;;;;;34.38;25.67;;;;;;;13.66;85.43;98755.63;5054185;28;20079;-52
2021/09/20 02:43:49;;;;;;;10.95;7.30;;;;;;;13.68;85.59;98750.94;5054058;28;20025;-51
2021/09/20 02:46:15;;;;;;;17.30;10.35;;;;;;;13.82;85.47;98756.88;5054038;28;20440;-52
2021/09/20 02:48:42;;;;;;;8.50;2.75;;;;;;;13.96;85.03;98756.53;5052716;28;20528;-52
2021/09/20 02:51:07;;;;;;;12.43;3.90;;;;;;;14.01;84.80;98752.44;5052628;28;20032;-52
2021/09/20 02:53:33;;;;;;;11.50;5.97;;;;;;;14.05;84.90;98758.88;5053998;28;20029;-52
2021/09/20 02:55:59;;;;;;;20.33;16.15;;;;;;;13.94;84.77;98752.47;5052585;28;20037;-51
2021/09/20 02:58:25;;;;;;;9.63;3.63;;;;;;;13.98;85.22;98764.22;5053877;28;20044;-51
2021/09/20 03:00:50;;;;;;;16.08;11.68;;;;;;;13.97;84.99;98760.78;5053770;28;20078;-51
2021/09/20 03:03:16;;;;;;;9.48;4.32;;;;;;;13.89;85.33;98755.00;5053751;28;20025;-51
2021/09/20 03:05:42;;;;;;;7.10;1.88;;;;;;;13.85;85.35;98762.53;5053673;28;20025;-52
2021/09/20 03:08:08;;;;;;;5.95;1.50;;;;;;;13.74;85.24;98757.97;5052378;28;20566;-52
2021/09/20 03:10:34;;;;;;;4.15;3.75;;;;;;;13.64;85.55;98757.66;5053600;28;20029;-52
2021/09/20 03:13:01;;;;;;;3.08;1.73;;;;;;;13.57;85.38;98763.03;5053593;28;20087;-51
2021/09/20 03:15:27;;;;;;;18.63;16.98;;;;;;;13.62;85.71;98762.34;5053506;28;20466;-52
2021/09/20 03:17:52;;;;;;;28.60;25.80;;;;;;;13.54;85.63;98760.81;5052169;28;20108;-51
2021/09/20 03:20:18;;;;;;;159.73;142.32;;;;;;;13.51;85.58;98754.16;5053191;28;20121;-51
2021/09/20 03:22:44;;;;;;;58.70;52.55;;;;;;;13.50;86.07;98757.00;5052002;28;20078;-51
2021/09/20 03:25:11;;;;;;;236.73;74.95;;;;;;;13.57;85.91;98757.75;5052027;28;20064;-52
2021/09/20 03:27:37;;;;;;;208.70;149.77;;;;;;;13.60;86.34;98754.66;5053293;28;20029;-52
2021/09/20 03:30:05;;;;;;;100.07;90.10;;;;;;;13.71;86.46;98763.69;5053218;28;20017;-52
2021/09/20 03:32:31;;;;;;;33.60;30.42;;;;;;;13.82;86.33;98764.78;5053153;28;20032;-52
2021/09/20 03:34:57;;;;;;;60.72;54.30;;;;;;;13.99;86.07;98757.91;5053131;28;20387;-51
2021/09/20 03:37:23;;;;;;;14.05;8.95;;;;;;;14.01;85.88;98763.78;5051780;28;20079;-51
2021/09/20 03:39:49;;;;;;;25.80;23.13;;;;;;;13.94;85.57;98760.41;5051744;28;20021;-51
2021/09/20 03:42:14;;;;;;;55.58;49.42;;;;;;;13.87;85.74;98763.13;5051634;28;20029;-52
2021/09/20 03:44:40;;;;;;;11.63;5.63;;;;;;;14.03;86.16;98758.28;5051653;28;20024;-52
2021/09/20 03:47:06;;;;;;;97.78;62.08;;;;;;;14.13;86.13;98751.44;5052918;28;20025;-52
2021/09/20 03:49:32;;;;;;;50.13;32.22;;;;;;;14.21;85.73;98752.19;5052861;28;20021;-52
2021/09/20 03:51:58;;;;;;;25.15;23.27;;;;;;;14.24;85.63;98749.88;5052832;28;20170;-52
2021/09/20 03:54:23;;;;;;;8.65;4.28;;;;;;;14.03;85.38;98745.91;5052817;28;20071;-52
2021/09/20 03:56:49;;;;;;;26.35;15.50;;;;;;;13.89;85.61;98749.72;5052740;28;20403;-52
2021/09/20 03:59:15;;;;;;;29.77;25.33;;;;;;;13.81;85.85;98753.44;5052668;28;20032;-52
2021/09/20 04:01:40;;;;;;;14.85;10.88;;;;;;;13.68;85.56;98751.75;5052142;28;20442;-51
2021/09/20 04:04:06;;;;;;;3.33;1.98;;;;;;;13.58;85.88;98747.00;5052552;28;20087;-52
2021/09/20 04:06:32;;;;;;;4.20;1.73;;;;;;;13.50;85.68;98751.72;5052444;28;20546;-51
2021/09/20 04:09:01;;;;;;;4.80;1.77;;;;;;;13.44;86.08;98750.78;5052549;28;20021;-51
2021/09/20 04:11:27;;;;;;;8.10;2.30;;;;;;;13.43;86.27;98756.25;5052396;28;20063;-51
2021/09/20 04:13:53;;;;;;;10.43;7.03;;;;;;;13.48;86.56;98753.75;5052434;28;20029;-51
2021/09/20 04:16:19;;;;;;;7.20;2.95;;;;;;;13.57;85.92;98757.75;5052396;28;20028;-52
2021/09/20 04:18:44;;;;;;;6.65;3.13;;;;;;;13.70;85.69;98748.88;5052325;28;20104;-51
2021/09/20 04:21:10;;;;;;;4.78;1.58;;;;;;;13.76;84.92;98745.38;5052068;28;20167;-52
2021/09/20 04:23:36;;;;;;;8.13;3.88;;;;;;;13.66;84.15;98748.53;5052134;28;20021;-52
2021/09/20 04:26:01;;;;;;;29.55;13.13;;;;;;;13.68;85.22;98749.13;5052252;28;20025;-51
2021/09/20 04:28:27;;;;;;;10.05;5.00;;;;;;;13.96;85.39;98751.25;5052164;28;20399;-51
2021/09/20 04:30:53;;;;;;;8.60;2.65;;;;;;;14.01;84.98;98747.16;5050809;28;20021;-52
2021/09/20 04:33:20;;;;;;;14.18;8.95;;;;;;;13.89;84.06;98750.50;5050847;28;20029;-51
2021/09/20 04:35:47;;;;;;;14.57;10.85;;;;;;;13.92;84.96;98750.09;5052001;28;20028;-51
2021/09/20 04:38:14;;;;;;;9.50;4.72;;;;;;;13.99;84.76;98750.00;5052030;28;20032;-51
2021/09/20 04:40:40;;;;;;;12.65;4.43;;;;;;;14.04;84.87;98754.59;5050698;28;20441;-51
2021/09/20 04:43:08;;;;;;;11.90;9.38;;;;;;;14.10;84.93;98751.09;5051925;28;20025;-51
2021/09/20 04:45:38;;;;;;;10.18;6.97;;;;;;;14.12;84.95;98747.19;5050566;28;20514;-51
2021/09/20 04:48:06;;;;;;;6.93;4.60;;;;;;;14.14;84.81;98749.59;5051943;28;20033;-51
2021/09/20 04:50:33;;;;;;;25.08;10.68;;;;;;;14.11;84.74;98742.16;5052110;28;20098;-51
2021/09/20 04:52:58;;;;;;;12.32;7.82;;;;;;;14.09;84.43;98745.00;5051833;28;20029;-51
2021/09/20 04:55:24;;;;;;;10.88;5.70;;;;;;;14.05;84.19;98743.03;5052123;28;20028;-51
2021/09/20 04:57:50;;;;;;;11.73;5.85;;;;;;;14.07;84.14;98738.34;5050445;28;20035;-51
2021/09/20 05:00:16;;;;;;;10.65;6.00;;;;;;;14.09;84.29;98742.38;5051714;28;20027;-51
2021/09/20 05:02:42;;;;;;;11.80;5.00;;;;;;;14.26;84.93;98742.56;5051601;28;20486;-51
2021/09/20 05:05:08;;;;;;;28.92;17.15;;;;;;;14.54;85.24;98739.34;5050356;28;20028;-51
2021/09/20 05:07:35;;;;;;;21.80;10.32;;;;;;;14.90;85.29;98734.97;5051565;28;20497;-51
2021/09/20 05:10:01;;;;;;;14.68;6.15;;;;;;;15.17;85.11;98740.66;5051912;28;20442;-51
2021/09/20 05:12:27;;;;;;;5.47;2.33;;;;;;;15.40;85.03;98741.72;5050322;28;20055;-51
2021/09/20 05:14:52;;;;;;;8.82;2.42;;;;;;;15.30;83.71;98744.91;5054026;28;20095;-51
2021/09/20 05:17:18;;;;;;;6.03;2.00;;;;;;;14.99;83.09;98740.75;5054724;28;20033;-51
2021/09/20 05:19:44;;;;;;;50.53;36.67;;;;;;;14.78;83.88;98742.09;5055341;28;20100;-52
2021/09/20 05:22:09;;;;;;;12.82;4.40;;;;;;;14.88;84.54;98733.59;5055670;28;20040;-50
2021/09/20 05:24:35;;;;;;;6.25;3.75;;;;;;;14.83;84.15;98734.31;5054243;28;20084;-51
2021/09/20 05:27:01;;;;;;;12.05;3.50;;;;;;;14.67;84.20;98741.03;5054306;28;20424;-51
2021/09/20 05:29:27;;;;;;;70.38;51.85;;;;;;;14.62;84.62;98737.44;5055510;28;20025;-51
2021/09/20 05:31:54;;;;;;;17.35;7.57;;;;;;;14.89;85.70;98737.84;5054203;28;20027;-51
2021/09/20 05:34:22;;;;;;;7.05;2.90;;;;;;;15.06;84.80;98740.66;5055509;28;20033;-52
2021/09/20 05:36:49;;;;;;;12.85;10.75;;;;;;;14.58;83.31;98735.25;5055314;28;20052;-51
2021/09/20 05:39:15;;;;;;;9.25;3.75;;;;;;;14.21;84.11;98734.50;5055335;28;20032;-51
2021/09/20 05:41:44;;;;;;;6.38;2.97;;;;;;;14.08;84.39;98737.31;5055328;28;20112;-51
2021/09/20 05:44:10;;;;;;;10.57;5.30;;;;;;;14.28;85.83;98744.97;5055230;28;20554;-51
2021/09/20 05:46:35;;;;;;;19.83;8.52;;;;;;;14.81;86.78;98741.66;5055205;28;20095;-51
2021/09/20 05:49:01;;;;;;;11.48;5.90;;;;;;;15.23;86.62;98741.59;5053906;28;20086;-51
2021/09/20 05:51:27;;;;;;;16.00;7.47;;;;;;;15.43;86.03;98745.72;5055172;28;20028;-52
2021/09/20 05:53:53;;;;;;;12.52;5.78;;;;;;;15.55;85.12;98738.59;5055078;28;20025;-51
2021/09/20 05:56:18;;;;;;;32.10;24.38;;;;;;;15.41;84.29;98737.22;5053690;28;20029;-51
2021/09/20 05:58:44;;;;;;;23.90;16.10;;;;;;;15.18;84.36;98741.47;5055031;28;20025;-51
2021/09/20 06:01:13;;;;;;;62.58;51.58;;;;;;;15.21;84.64;98741.00;5053616;28;20025;-51
2021/09/20 06:03:41;;;;;;;47.58;31.27;;;;;;;15.24;84.85;98737.09;5053461;28;20407;-51
2021/09/20 06:06:07;;;;;;;278.88;252.40;;;;;;;15.50;85.62;98741.13;5054851;28;20387;-51
2021/09/20 06:08:33;;;;;;;35.92;9.55;;;;;;;15.72;84.70;98736.88;5054771;28;20021;-52
2021/09/20 06:10:58;;;;;;;289.90;263.63;;;;;;;15.67;84.35;98735.94;5053480;28;20024;-51
2021/09/20 06:13:24;;;;;;;115.45;94.72;;;;;;;15.76;84.43;98738.03;5054687;28;20040;-51
2021/09/20 06:15:52;;;;;;;48.05;38.92;;;;;;;15.90;84.50;98743.06;5054673;28;20021;-49
2021/09/20 06:18:17;;;;;;;29.83;26.73;;;;;;;16.06;84.21;98733.59;5054691;28;20025;-49
2021/09/20 06:20:46;;;;;;;9.15;3.85;;;;;;;16.01;83.05;98739.59;5053009;28;20571;-50
2021/09/20 06:23:12;;;;;;;13.55;8.88;;;;;;;15.82;82.94;98738.16;5053217;28;20025;-49
2021/09/20 06:25:39;;;;;;;141.32;126.50;;;;;;;15.59;82.47;98729.16;5054038;28;20445;-49
2021/09/20 06:28:05;;;;;;;379.00;340.73;;;;;;;15.42;83.62;98737.00;5054478;28;20017;-51
2021/09/20 06:30:31;;;;;;;77.68;68.70;;;;;;;15.61;84.24;98742.94;5053073;28;20508;-49
2021/09/20 06:32:57;;;;;;;33.35;23.10;;;;;;;15.63;83.68;98742.72;5054513;28;20029;-49
2021/09/20 06:35:22;;;;;;;50.58;9.25;;;;;;;15.55;83.32;98738.59;5054392;28;20441;-51
2021/09/20 06:37:48;;;;;;;30.85;15.10;;;;;;;15.39;83.46;98740.09;5054403;28;20449;-51
2021/09/20 06:40:14;;;;;;;28.55;11.57;;;;;;;15.60;84.41;98741.34;5052971;28;20029;-51
2021/09/20 06:42:40;;;;;;;30.85;27.55;;;;;;;15.70;83.60;98744.22;5052819;28;20494;-51
2021/09/20 06:45:08;;;;;;;39.10;34.83;;;;;;;15.71;83.22;98739.72;5054169;28;20025;-51
2021/09/20 06:47:33;;;;;;;37.40;31.63;;;;;;;15.58;83.05;98740.78;5054014;28;20025;-49
2021/09/20 06:49:59;;;;;;;71.20;64.53;;;;;;;15.80;84.68;98741.03;5052783;28;20086;-49
2021/09/20 06:52:35;;;;;;;17.20;5.95;;;;;;;15.97;83.70;98735.78;5054033;28;20093;-50
2021/09/20 06:55:07;;;;;;;36.40;12.85;;;;;;;15.87;83.45;98740.88;5071344;28;20036;-52
2021/09/20 06:57:47;;;;;;;44.13;39.80;;;;;;;15.78;83.80;98740.44;5070729;28;20067;-52
2021/09/20 07:00:43;;;;;;;8.35;4.18;;;;;;;15.76;83.73;98743.31;5062959;28;20033;-51
2021/09/20 07:03:12;;;;;;;5.93;3.20;;;;;;;15.65;83.39;98738.00;5052473;28;20080;-51
2021/09/20 07:05:39;;;;;;;8.85;4.28;;;;;;;15.58;83.71;98738.94;5053699;28;20099;-51
2021/09/20 07:08:08;;;;;;;15.35;10.55;;;;;;;15.52;83.68;98739.06;5052415;28;20025;-51
2021/09/20 07:10:35;;;;;;;25.25;14.18;;;;;;;15.66;84.04;98735.13;5052386;28;20036;-51
2021/09/20 07:13:00;;;;;;;24.67;7.78;;;;;;;15.93;84.25;98738.09;5053615;28;20033;-51
2021/09/20 07:15:26;;;;;;;19.08;8.23;;;;;;;16.23;84.09;98739.75;5052290;28;20398;-49
2021/09/20 07:17:53;;;;;;;21.20;4.60;;;;;;;16.32;83.05;98745.50;5052243;28;20731;-49
2021/09/20 07:20:18;;;;;;;16.08;2.47;;;;;;;16.10;82.46;98748.78;5051962;28;20122;-49
2021/09/20 07:22:47;;;;;;;20.73;5.40;;;;;;;15.92;82.61;98749.75;5052027;28;20032;-49
2021/09/20 07:25:13;;;;;;;11.70;2.85;;;;;;;15.81;82.38;98747.09;5053361;28;20017;-49
2021/09/20 07:27:39;;;;;;;22.80;10.25;;;;;;;15.71;83.35;98747.66;5052094;28;20135;-49
2021/09/20 07:30:06;;;;;;;15.73;3.70;;;;;;;15.80;83.55;98751.59;5052011;28;20398;-51
2021/09/20 07:32:33;;;;;;;22.98;6.25;;;;;;;15.85;83.49;98753.53;5051800;28;20060;-51
2021/09/20 07:34:59;;;;;;;23.52;5.10;;;;;;;16.17;83.70;98757.38;5051875;28;20032;-51
2021/09/20 07:37:25;;;;;;;11.40;3.92;;;;;;;16.26;82.89;98759.66;5052345;28;20075;-51
2021/09/20 07:39:51;;;;;;;35.20;13.30;;;;;;;16.22;82.97;98758.50;5053123;28;20033;-49
2021/09/20 07:42:17;;;;;;;21.25;8.25;;;;;;;16.28;82.31;98758.41;5051695;28;20086;-49
2021/09/20 07:44:43;;;;;;;29.17;10.02;;;;;;;16.24;82.23;98759.91;5053250;28;20044;-49
2021/09/20 07:47:09;;;;;;;58.88;28.73;;;;;;;16.23;82.38;98760.13;5052883;28;20534;-49
2021/09/20 07:49:35;;;;;;;82.00;12.07;;;;;;;16.24;82.77;98759.91;5051638;28;20057;-50
2021/09/20 07:52:00;;;;;;;82.10;73.25;;;;;;;16.32;83.34;98766.69;5052800;28;20075;-49
2021/09/20 07:54:26;;;;;;;50.08;10.80;;;;;;;16.70;83.38;98763.41;5052797;28;20441;-49
2021/09/20 07:56:52;;;;;;;43.92;6.82;;;;;;;16.87;82.71;98760.81;5052788;28;20429;-49
2021/09/20 07:59:18;;;;;;;122.85;86.25;;;;;;;16.89;82.71;98761.38;5051437;28;20033;-49
2021/09/20 08:01:43;;;;;;;36.30;20.13;;;;;;;16.93;82.31;98759.84;5052672;28;20021;-49
2021/09/20 08:04:10;;;;;;;92.60;15.18;;;;;;;16.87;82.40;98762.66;5052511;28;20399;-49
2021/09/20 08:06:38;;;;;;;40.55;10.40;;;;;;;16.83;82.02;98761.53;5052638;28;20099;-49
2021/09/20 08:09:04;;;;;;;58.92;32.28;;;;;;;16.91;83.25;98764.59;5051220;28;20029;-49
2021/09/20 08:11:30;;;;;;;98.32;87.85;;;;;;;17.21;83.26;98763.47;5052452;28;20017;-50
2021/09/20 08:13:56;;;;;;;200.15;179.43;;;;;;;17.41;82.63;98762.97;5052450;28;20029;-49
2021/09/20 08:16:22;;;;;;;151.13;83.88;;;;;;;17.41;81.80;98762.19;5051072;28;20025;-49
2021/09/20 08:18:47;;;;;;;42.58;38.10;;;;;;;17.23;81.14;98766.69;5052565;28;20356;-49
2021/09/20 08:21:13;;;;;;;137.23;124.97;;;;;;;17.12;81.51;98776.34;5050643;28;20579;-49
2021/09/20 08:23:39;;;;;;;145.48;132.85;;;;;;;17.13;81.37;98769.97;5050926;28;20028;-49
2021/09/20 08:26:06;;;;;;;178.18;162.32;;;;;;;17.23;81.71;98773.84;5052137;28;20049;-49
2021/09/20 08:28:33;;;;;;;48.10;43.17;;;;;;;17.30;81.08;98775.28;5052214;28;20033;-49
2021/09/20 08:30:59;;;;;;;40.25;30.98;;;;;;;17.41;81.00;98776.25;5052126;28;20036;-49
2021/09/20 08:33:26;;;;;;;12.10;3.08;;;;;;;17.47;79.53;98783.25;5052157;28;20017;-49
2021/09/20 08:35:56;;;;;;;5.20;2.90;;;;;;;17.36;79.19;98782.28;5052016;28;20031;-49
2021/09/20 08:38:21;;;;;;;15.55;4.15;;;;;;;17.25;79.10;98783.16;5050760;28;20021;-49
2021/09/20 08:40:48;;;;;;;7.80;3.58;;;;;;;17.11;79.24;98787.97;5052051;28;20091;-49
2021/09/20 08:43:14;;;;;;;6.40;2.92;;;;;;;17.03;79.11;98792.88;5051979;28;20029;-49
2021/09/20 08:45:40;;;;;;;4.10;1.90;;;;;;;17.00;79.49;98799.44;5051881;28;20040;-49
2021/09/20 08:48:06;;;;;;;3.17;1.92;;;;;;;17.11;79.55;98792.50;5051606;28;20033;-49
2021/09/20 08:50:35;;;;;;;22.70;19.35;;;;;;;17.15;78.72;98801.56;5050590;28;20031;-49
2021/09/20 08:53:03;;;;;;;57.63;48.88;;;;;;;17.10;78.96;98798.81;5051835;28;20032;-49
2021/09/20 08:55:29;;;;;;;14.45;9.70;;;;;;;17.05;79.17;98809.34;5051839;28;20021;-49
2021/09/20 08:57:55;;;;;;;17.38;6.50;;;;;;;17.10;79.24;98799.66;5051754;28;20095;-49
2021/09/20 09:00:21;;;;;;;133.05;22.95;;;;;;;17.17;78.85;98804.78;5051760;28;20107;-49
2021/09/20 09:02:47;;;;;;;21.38;5.65;;;;;;;17.12;78.39;98808.16;5050371;28;20051;-49
2021/09/20 09:05:21;;;;;;;9.48;2.38;;;;;;;17.12;78.75;98807.34;5051630;28;20057;-49
2021/09/20 09:07:59;;;;;;;14.27;2.65;;;;;;;17.01;78.67;98813.53;5051831;28;20032;-49
2021/09/20 09:10:28;;;;;;;8.77;3.67;;;;;;;16.92;80.00;98813.91;5051676;28;20117;-49
2021/09/20 09:12:55;;;;;;;19.40;14.13;;;;;;;17.01;80.42;98805.56;5051694;28;20104;-49
2021/09/20 09:15:24;;;;;;;18.70;2.53;;;;;;;17.04;80.17;98810.38;5051588;28;20027;-49
2021/09/20 09:17:54;;;;;;;28.13;16.00;;;;;;;17.04;80.54;98813.03;5051532;28;20022;-49
2021/09/20 09:20:33;;;;;;;5.47;1.52;;;;;;;17.01;80.13;98811.69;5050052;28;20064;-50
2021/09/20 09:23:07;;;;;;;9.27;4.30;;;;;;;16.81;80.67;98813.94;5051499;28;20044;-50
2021/09/20 09:25:42;;;;;;;19.88;15.00;;;;;;;16.84;81.82;98810.84;5051625;28;20076;-50
2021/09/20 09:28:24;;;;;;;141.65;72.55;;;;;;;16.97;81.79;98815.84;5051480;28;20037;-50
2021/09/20 09:30:51;;;;;;;134.85;39.63;;;;;;;17.06;82.24;98816.25;5050218;28;20033;-50
2021/09/20 09:33:34;;;;;;;6.53;3.63;;;;;;;17.03;81.85;98814.91;5051531;28;20021;-50
2021/09/20 09:36:02;;;;;;;10.80;9.60;;;;;;;17.14;82.50;98806.06;5050203;28;20041;-50
2021/09/20 09:38:32;;;;;;;89.53;7.68;;;;;;;17.24;81.90;98818.69;5050164;28;20023;-50
2021/09/20 09:41:01;;;;;;;24.35;12.02;;;;;;;17.15;81.81;98814.84;5051439;28;20036;-50
2021/09/20 09:43:35;;;;;;;5.70;2.95;;;;;;;17.09;82.07;98813.94;5051370;28;20498;-50
2021/09/20 09:46:16;;;;;;;14.80;13.25;;;;;;;17.24;82.30;98817.88;5051297;28;20025;-50
2021/09/20 09:48:44;;;;;;;37.97;34.42;;;;;;;17.46;82.52;98815.31;5051329;28;20380;-50
2021/09/20 09:51:11;;;;;;;9.30;5.55;;;;;;;17.52;81.41;98823.09;5051213;28;20029;-50
2021/09/20 09:53:44;;;;;;;4.45;2.35;;;;;;;17.48;81.75;98815.88;5051287;28;20021;-50
2021/09/20 09:56:18;;;;;;;3.50;2.22;;;;;;;17.74;82.09;98815.19;5051174;28;20044;-50
2021/09/20 09:59:05;;;;;;;6.43;4.20;;;;;;;18.09;81.76;98818.63;5051180;28;20021;-50
2021/09/20 10:01:33;;;;;;;13.70;10.65;;;;;;;18.25;81.48;98816.97;5058680;28;20033;-51
2021/09/20 10:04:30;;;;;;;28.45;25.65;;;;;;;18.33;81.59;98813.88;5053599;28;20060;-51
2021/09/20 10:07:00;;;;;;;6.25;2.00;;;;;;;18.31;79.77;98816.78;5054874;28;20047;-51
2021/09/20 10:09:28;;;;;;;5.18;3.42;;;;;;;18.11;80.56;98814.69;5055414;28;20406;-51
2021/09/20 10:11:57;;;;;;;4.50;0.98;;;;;;;18.09;80.36;98815.97;5054778;28;20017;-51
2021/09/20 10:14:25;;;;;;;2.08;1.25;;;;;;;17.95;79.56;98810.22;5054726;28;20028;-51
2021/09/20 10:16:59;;;;;;;5.57;1.42;;;;;;;17.76;79.43;98814.97;5054727;28;20057;-51
2021/09/20 10:19:25;;;;;;;8.18;1.67;;;;;;;17.60;79.29;98821.09;5054782;28;20021;-51
2021/09/20 10:21:51;;;;;;;25.95;19.50;;;;;;;17.44;80.15;98817.41;5054361;28;20033;-51
2021/09/20 10:24:17;;;;;;;9.20;5.32;;;;;;;17.66;80.21;98818.28;5053268;28;20064;-51
2021/09/20 10:26:46;;;;;;;3.15;2.28;;;;;;;17.86;79.53;98811.69;5053253;28;20029;-50
2021/09/20 10:29:16;;;;;;;2.35;1.17;;;;;;;17.94;79.10;98821.88;5036693;28;20029;-51
2021/09/20 10:31:46;;;;;;;8.93;6.88;;;;;;;18.01;79.00;98819.03;5054466;28;20017;-51
2021/09/20 10:34:18;;;;;;;1.95;1.10;;;;;;;17.88;77.57;98813.03;5054342;28;20040;-51
2021/09/20 10:36:58;;;;;;;4.35;1.30;;;;;;;17.70;78.18;98823.91;5054248;28;20064;-51
2021/09/20 10:40:06;;;;;;;3.67;1.00;;;;;;;17.52;78.52;98822.31;5054355;28;20487;-51
2021/09/20 10:42:36;;;;;;;2.63;1.33;;;;;;;17.33;78.97;98824.41;5054008;28;20104;-51
2021/09/20 10:45:08;;;;;;;5.57;2.22;;;;;;;17.19;79.61;98829.22;5054072;28;20082;-51
2021/09/20 10:47:46;;;;;;;4.00;2.25;;;;;;;17.25;80.50;98828.25;5054216;28;20100;-50
2021/09/20 10:50:13;;;;;;;6.15;3.67;;;;;;;17.32;80.27;98818.28;5054035;28;20025;-51
2021/09/20 10:53:29;;;;;;;33.15;23.65;;;;;;;17.30;80.61;98823.03;5054065;28;20029;-52
2021/09/20 10:56:07;;;;;;;7.63;3.67;;;;;;;17.12;80.34;98818.78;5045614;28;20029;-50
2021/09/20 10:58:52;;;;;;;29.75;26.83;;;;;;;16.93;80.78;98817.38;5053922;28;20399;-51
2021/09/20 11:01:20;;;;;;;131.95;12.73;;;;;;;16.81;81.31;98827.19;5053976;28;20024;-52
2021/09/20 11:04:24;;;;;;;90.40;11.10;;;;;;;16.70;82.28;98823.53;5053788;28;20017;-50
2021/09/20 11:07:11;;;;;;;9.02;5.55;;;;;;;16.70;82.72;98818.22;5051783;28;20474;-51
2021/09/20 11:09:45;;;;;;;5.30;3.25;;;;;;;16.68;82.71;98828.25;5052513;28;20029;-51
2021/09/20 11:12:20;;;;;;;12.73;2.80;;;;;;;16.71;82.70;98819.84;5052415;28;20068;-51
2021/09/20 11:14:48;;;;;;;7.73;3.37;;;;;;;16.69;82.84;98820.09;5053732;28;20040;-51
2021/09/20 11:17:17;;;;;;;38.92;4.70;;;;;;;16.76;83.45;98822.59;5053553;28;20617;-51
2021/09/20 11:19:44;;;;;;;7.28;2.25;;;;;;;16.82;83.10;98829.66;5053831;28;20376;-52
2021/09/20 11:22:13;;;;;;;6.13;1.80;;;;;;;16.95;83.32;98826.69;5053453;28;20033;-51
2021/09/20 11:24:43;;;;;;;19.42;7.43;;;;;;;16.92;83.50;98835.13;5053640;28;20166;-51
2021/09/20 11:27:21;;;;;;;4.00;1.55;;;;;;;17.06;83.32;98829.50;5053321;28;20017;-51